Time;durP1;ratioP1;P1;durP2;ratioP2;P2;SDS_P1;SDS_P2;PMS_P1;PMS_P2;Temp;Humidity;BMP_temperature;BMP_pressure;BME280_temperature;BME280_humidity;BME280_pressure;Samples;Min_cycle;Max_cycle;Signal;HPM_P1;HPM_P2
2020/12/07 00:00:13;;;;;;;35.53;22.20;;;5.30;99.90;;;;;;5013886;28;20203;-73
2020/12/07 00:02:40;;;;;;;35.87;21.53;;;5.30;99.90;;;;;;5032764;28;20970;-74
2020/12/07 00:05:06;;;;;;;36.57;21.73;;;5.30;99.90;;;;;;5032178;28;20516;-74
2020/12/07 00:07:31;;;;;;;35.30;19.93;;;5.30;99.90;;;;;;5029577;28;20426;-74
2020/12/07 00:09:57;;;;;;;33.90;20.60;;;5.30;99.90;;;;;;5014629;28;20552;-74
2020/12/07 00:12:30;;;;;;;31.57;21.60;;;5.30;99.90;;;;;;5033627;28;20549;-74
2020/12/07 00:14:56;;;;;;;33.23;20.47;;;5.40;99.90;;;;;;5026596;28;20279;-74
2020/12/07 00:17:22;;;;;;;30.80;18.03;;;5.30;99.90;;;;;;5013664;28;20456;-73
2020/12/07 00:19:49;;;;;;;30.23;19.17;;;5.40;99.90;;;;;;5012896;28;20529;-73
2020/12/07 00:22:25;;;;;;;30.37;19.80;;;5.40;99.90;;;;;;5022466;28;20515;-73
2020/12/07 00:24:54;;;;;;;27.10;17.27;;;5.30;99.90;;;;;;5032580;28;20470;-74
2020/12/07 00:27:25;;;;;;;29.97;18.43;;;5.40;99.90;;;;;;5032415;28;20423;-73
2020/12/07 00:29:52;;;;;;;28.10;16.77;;;5.40;99.90;;;;;;5018018;28;20958;-73
2020/12/07 00:32:18;;;;;;;21.97;15.87;;;5.30;99.90;;;;;;5013172;28;20424;-74
2020/12/07 00:34:44;;;;;;;24.00;15.53;;;5.30;99.90;;;;;;5013406;28;20920;-73
2020/12/07 00:37:10;;;;;;;24.80;16.13;;;5.30;99.90;;;;;;5014121;28;20457;-73
2020/12/07 00:39:36;;;;;;;21.97;15.20;;;5.30;99.90;;;;;;5013025;28;20807;-74
2020/12/07 00:42:02;;;;;;;23.97;15.53;;;5.40;99.90;;;;;;5013287;28;20190;-73
2020/12/07 00:44:29;;;;;;;21.10;15.27;;;5.40;99.90;;;;;;5025034;28;20519;-74
2020/12/07 00:46:54;;;;;;;18.90;14.13;;;5.40;99.90;;;;;;5024313;28;20928;-75
2020/12/07 00:49:20;;;;;;;19.03;13.20;;;5.40;99.90;;;;;;5033442;28;20444;-74
2020/12/07 00:51:47;;;;;;;17.40;12.47;;;5.50;99.90;;;;;;5021066;28;20168;-74
2020/12/07 00:54:13;;;;;;;14.60;12.13;;;5.50;99.90;;;;;;5022054;28;20179;-74
2020/12/07 00:56:38;;;;;;;17.40;12.00;;;5.50;99.90;;;;;;5020080;28;20971;-74
2020/12/07 00:59:04;;;;;;;15.80;12.27;;;5.50;99.90;;;;;;5033286;28;20539;-74
2020/12/07 01:01:30;;;;;;;12.80;10.57;;;5.50;99.90;;;;;;5034112;28;20183;-74
2020/12/07 01:03:55;;;;;;;17.30;11.50;;;5.40;99.90;;;;;;5034111;28;20221;-74
2020/12/07 01:06:30;;;;;;;12.83;10.43;;;5.40;99.90;;;;;;5019553;28;20185;-74
2020/12/07 01:08:55;;;;;;;17.13;11.03;;;5.40;99.90;;;;;;5016195;28;20218;-74
2020/12/07 01:11:21;;;;;;;12.57;10.20;;;5.40;99.90;;;;;;5016167;28;20432;-74
2020/12/07 01:13:47;;;;;;;13.50;9.43;;;5.40;99.90;;;;;;5035692;28;20182;-74
2020/12/07 01:16:16;;;;;;;15.10;10.00;;;5.40;99.90;;;;;;5035664;28;20180;-74
2020/12/07 01:18:42;;;;;;;13.43;8.63;;;5.40;99.90;;;;;;5019118;28;20203;-73
2020/12/07 01:21:08;;;;;;;10.90;8.83;;;5.30;99.90;;;;;;5034022;28;20443;-74
2020/12/07 01:23:34;;;;;;;10.40;8.27;;;5.40;99.90;;;;;;5035415;28;20205;-74
2020/12/07 01:25:59;;;;;;;11.37;9.17;;;5.40;99.90;;;;;;5030944;28;20896;-74
2020/12/07 01:28:25;;;;;;;9.80;7.87;;;5.40;99.90;;;;;;5015837;28;20641;-74
2020/12/07 01:30:50;;;;;;;10.47;8.90;;;5.50;99.90;;;;;;5007865;28;20192;-74
2020/12/07 01:33:16;;;;;;;12.53;10.00;;;5.40;99.90;;;;;;5022263;28;20246;-73
2020/12/07 01:35:42;;;;;;;10.83;8.57;;;5.50;99.90;;;;;;5034774;28;20191;-74
2020/12/07 01:38:07;;;;;;;11.70;9.13;;;5.50;99.90;;;;;;5021734;28;20519;-74
2020/12/07 01:40:33;;;;;;;12.60;10.10;;;5.50;99.90;;;;;;5023994;28;20440;-74
2020/12/07 01:42:58;;;;;;;11.57;9.60;;;5.50;99.90;;;;;;5034955;28;20697;-74
2020/12/07 01:45:24;;;;;;;13.00;9.90;;;5.50;99.90;;;;;;5035291;28;20250;-74
2020/12/07 01:47:49;;;;;;;11.63;9.03;;;5.50;99.90;;;;;;5024476;28;20182;-73
2020/12/07 01:50:15;;;;;;;12.53;10.37;;;5.40;99.90;;;;;;5016119;28;20688;-74
2020/12/07 01:52:42;;;;;;;13.20;11.20;;;5.40;99.90;;;;;;5014235;28;20526;-74
2020/12/07 01:55:08;;;;;;;13.83;10.73;;;5.40;99.90;;;;;;5027823;28;20567;-74
2020/12/07 01:57:34;;;;;;;13.53;11.00;;;5.50;99.90;;;;;;5034391;28;20424;-75
2020/12/07 02:00:00;;;;;;;12.83;11.20;;;5.50;99.90;;;;;;5007751;28;20443;-74
2020/12/07 02:02:26;;;;;;;14.53;11.40;;;5.40;99.90;;;;;;5031159;28;20446;-72
2020/12/07 02:04:52;;;;;;;15.83;12.80;;;5.50;99.90;;;;;;5035197;28;20565;-72
2020/12/07 02:07:18;;;;;;;18.83;12.70;;;5.60;99.90;;;;;;5049367;28;20237;-73
2020/12/07 02:09:44;;;;;;;17.77;12.80;;;5.50;99.90;;;;;;5044695;28;20213;-72
2020/12/07 02:12:09;;;;;;;18.90;14.30;;;5.50;99.90;;;;;;5035477;28;20431;-74
2020/12/07 02:14:35;;;;;;;18.90;13.10;;;5.50;99.90;;;;;;5053673;28;20253;-73
2020/12/07 02:17:00;;;;;;;19.87;14.07;;;5.40;99.90;;;;;;5046932;28;20891;-74
2020/12/07 02:19:26;;;;;;;20.10;13.90;;;5.30;99.90;;;;;;5045478;28;20253;-72
2020/12/07 02:21:51;;;;;;;19.83;14.43;;;5.20;99.90;;;;;;5033643;28;20230;-75
2020/12/07 02:24:17;;;;;;;21.90;16.07;;;5.20;99.90;;;;;;5019508;28;20210;-73
2020/12/07 02:26:42;;;;;;;28.30;17.87;;;5.30;99.90;;;;;;5033347;28;20649;-74
2020/12/07 02:29:08;;;;;;;20.17;15.20;;;5.30;99.90;;;;;;5030840;28;20203;-74
2020/12/07 02:31:33;;;;;;;23.20;16.37;;;5.40;99.90;;;;;;5014771;28;20207;-74
2020/12/07 02:33:59;;;;;;;24.47;16.90;;;5.40;99.90;;;;;;5016447;28;20210;-74
2020/12/07 02:36:24;;;;;;;17.53;14.73;;;5.30;99.90;;;;;;5020211;28;20703;-74
2020/12/07 02:38:50;;;;;;;22.70;16.80;;;5.30;99.90;;;;;;5026681;28;20198;-74
2020/12/07 02:41:15;;;;;;;22.83;16.40;;;5.40;99.90;;;;;;5014469;28;20182;-74
2020/12/07 02:43:41;;;;;;;20.17;15.37;;;5.40;99.90;;;;;;5020963;28;20219;-73
2020/12/07 02:46:06;;;;;;;21.30;16.37;;;5.40;99.90;;;;;;5033735;28;20608;-74
2020/12/07 02:48:32;;;;;;;22.80;16.50;;;5.40;99.90;;;;;;5033444;28;20836;-74
2020/12/07 02:50:57;;;;;;;20.70;15.67;;;5.40;99.90;;;;;;5025004;28;20225;-74
2020/12/07 02:53:23;;;;;;;22.30;15.60;;;5.30;99.90;;;;;;5018396;28;20323;-73
2020/12/07 02:55:48;;;;;;;23.70;16.10;;;5.30;99.90;;;;;;5033503;28;20206;-74
2020/12/07 02:58:14;;;;;;;21.03;16.67;;;5.30;99.90;;;;;;5024417;28;20240;-74
2020/12/07 03:00:39;;;;;;;25.53;16.90;;;5.30;99.90;;;;;;5029002;28;20212;-74
2020/12/07 03:03:05;;;;;;;23.00;16.67;;;5.30;99.90;;;;;;5027520;28;20184;-74
2020/12/07 03:05:31;;;;;;;24.13;16.27;;;5.30;99.90;;;;;;5025055;28;20275;-74
2020/12/07 03:07:56;;;;;;;21.93;15.90;;;5.30;99.90;;;;;;5015047;28;20515;-74
2020/12/07 03:10:22;;;;;;;23.93;17.73;;;5.30;99.90;;;;;;5013156;28;20215;-74
2020/12/07 03:12:47;;;;;;;24.27;16.97;;;5.30;99.90;;;;;;5023479;28;20187;-74
2020/12/07 03:15:13;;;;;;;21.57;16.47;;;5.40;99.90;;;;;;5033067;28;20189;-74
2020/12/07 03:17:39;;;;;;;23.93;16.80;;;5.40;99.90;;;;;;5024015;28;20187;-74
2020/12/07 03:20:04;;;;;;;20.10;16.23;;;5.40;99.90;;;;;;5025743;28;20310;-74
2020/12/07 03:22:30;;;;;;;21.80;16.33;;;5.30;99.90;;;;;;5033352;28;20177;-74
2020/12/07 03:24:55;;;;;;;18.83;15.27;;;5.30;99.90;;;;;;5032950;28;20205;-74
2020/12/07 03:27:21;;;;;;;19.67;14.87;;;5.30;99.90;;;;;;5019106;28;20183;-74
2020/12/07 03:29:46;;;;;;;21.33;16.03;;;5.30;99.90;;;;;;5013755;28;20215;-74
2020/12/07 03:32:12;;;;;;;19.80;15.60;;;5.30;99.90;;;;;;5013871;28;20175;-74
2020/12/07 03:34:37;;;;;;;20.10;15.87;;;5.30;99.90;;;;;;5029247;28;20186;-74
2020/12/07 03:37:03;;;;;;;21.20;16.63;;;5.40;99.90;;;;;;5033173;28;20209;-75
2020/12/07 03:39:28;;;;;;;19.33;15.20;;;5.40;99.90;;;;;;5031282;28;20656;-74
2020/12/07 03:41:54;;;;;;;21.13;15.27;;;5.30;99.90;;;;;;5021295;28;20187;-73
2020/12/07 03:44:19;;;;;;;21.90;15.63;;;5.40;99.90;;;;;;5012988;28;20660;-74
2020/12/07 03:46:45;;;;;;;21.43;15.50;;;5.30;99.90;;;;;;5014240;28;20178;-74
2020/12/07 03:49:11;;;;;;;22.03;16.67;;;5.30;99.90;;;;;;5028944;28;20203;-74
2020/12/07 03:51:36;;;;;;;17.87;14.63;;;5.30;99.90;;;;;;5013758;28;20179;-74
2020/12/07 03:54:02;;;;;;;22.43;15.80;;;5.30;99.90;;;;;;5013080;28;20554;-74
2020/12/07 03:56:27;;;;;;;20.47;15.40;;;5.30;99.90;;;;;;5019075;28;20172;-74
2020/12/07 03:58:53;;;;;;;15.70;12.73;;;5.40;99.90;;;;;;5032161;28;20199;-74
2020/12/07 04:01:18;;;;;;;18.37;13.93;;;5.30;99.90;;;;;;5032527;28;20751;-73
2020/12/07 04:03:49;;;;;;;17.67;13.33;;;5.30;99.90;;;;;;5025194;28;20659;-73
2020/12/07 04:06:22;;;;;;;14.00;11.70;;;5.40;99.90;;;;;;5013346;28;20635;-74
2020/12/07 04:08:47;;;;;;;14.47;11.03;;;5.20;99.90;;;;;;5012925;28;20481;-73
2020/12/07 04:11:13;;;;;;;14.50;12.07;;;5.20;99.90;;;;;;5011285;28;20476;-74
2020/12/07 04:13:38;;;;;;;15.23;12.77;;;5.20;99.90;;;;;;5013220;28;20260;-74
2020/12/07 04:16:04;;;;;;;14.93;11.73;;;5.20;99.90;;;;;;5021338;28;20181;-74
2020/12/07 04:18:30;;;;;;;16.93;12.57;;;5.20;99.90;;;;;;5018615;28;20530;-73
2020/12/07 04:21:00;;;;;;;17.07;12.60;;;5.20;99.90;;;;;;5013509;28;20236;-74
2020/12/07 04:23:28;;;;;;;13.70;11.67;;;5.30;99.90;;;;;;5027332;28;20461;-74
2020/12/07 04:25:54;;;;;;;19.30;13.00;;;5.20;99.90;;;;;;5019345;28;20475;-74
2020/12/07 04:28:20;;;;;;;13.80;11.50;;;5.20;99.90;;;;;;5009335;28;20788;-72
2020/12/07 04:30:46;;;;;;;14.23;11.03;;;5.20;99.90;;;;;;5017006;28;20427;-75
2020/12/07 04:33:11;;;;;;;15.30;10.80;;;5.20;99.90;;;;;;5027077;28;20470;-73
2020/12/07 04:35:37;;;;;;;14.63;12.33;;;5.10;99.90;;;;;;5034109;28;20690;-74
2020/12/07 04:38:03;;;;;;;14.40;11.93;;;5.20;99.90;;;;;;5016946;28;20206;-74
2020/12/07 04:40:29;;;;;;;15.97;12.40;;;5.20;99.90;;;;;;5036142;28;20194;-72
2020/12/07 04:42:55;;;;;;;16.40;13.90;;;5.10;99.90;;;;;;5036429;28;20441;-73
2020/12/07 04:45:22;;;;;;;18.70;13.60;;;5.00;99.90;;;;;;5033643;28;20556;-73
2020/12/07 04:47:51;;;;;;;16.43;12.90;;;4.90;99.90;;;;;;5016929;28;20425;-76
2020/12/07 04:50:17;;;;;;;20.10;13.27;;;4.90;99.90;;;;;;5016672;28;20444;-74
2020/12/07 04:52:43;;;;;;;16.63;13.90;;;5.00;99.90;;;;;;5021562;28;20481;-73
2020/12/07 04:55:09;;;;;;;19.60;13.80;;;5.00;99.90;;;;;;5035786;28;20534;-74
2020/12/07 04:57:36;;;;;;;20.13;14.87;;;5.10;99.90;;;;;;5031847;28;20445;-74
2020/12/07 05:00:04;;;;;;;17.47;13.57;;;5.10;99.90;;;;;;5017163;28;20208;-75
2020/12/07 05:02:30;;;;;;;21.60;15.23;;;5.20;99.90;;;;;;5027574;28;20432;-74
2020/12/07 05:04:55;;;;;;;20.80;16.50;;;5.20;99.90;;;;;;5029823;28;20537;-72
2020/12/07 05:07:21;;;;;;;21.97;15.57;;;5.20;99.90;;;;;;5034020;28;20181;-74
2020/12/07 05:09:47;;;;;;;21.50;16.67;;;5.20;99.90;;;;;;5036676;28;20207;-74
2020/12/07 05:12:23;;;;;;;22.57;16.50;;;5.20;99.90;;;;;;5028720;28;20183;-75
2020/12/07 05:14:48;;;;;;;23.57;17.63;;;5.20;99.90;;;;;;5035650;28;20813;-74
2020/12/07 05:17:15;;;;;;;27.43;19.03;;;5.20;99.90;;;;;;5035795;28;20451;-73
2020/12/07 05:19:42;;;;;;;23.73;17.20;;;5.20;99.90;;;;;;5020197;28;20187;-75
2020/12/07 05:22:14;;;;;;;24.03;17.60;;;5.20;99.90;;;;;;5021349;28;20421;-74
2020/12/07 05:24:39;;;;;;;24.30;16.60;;;5.20;99.90;;;;;;5016526;28;20500;-74
2020/12/07 05:27:06;;;;;;;23.77;17.17;;;5.20;99.90;;;;;;5030171;28;20464;-74
2020/12/07 05:29:41;;;;;;;19.20;16.20;;;5.20;99.90;;;;;;5035937;28;20197;-74
2020/12/07 05:32:07;;;;;;;21.13;15.60;;;5.20;99.90;;;;;;5035786;28;20875;-74
2020/12/07 05:34:32;;;;;;;18.90;15.80;;;5.20;99.90;;;;;;5016995;28;20471;-74
2020/12/07 05:36:58;;;;;;;19.33;15.30;;;5.30;99.90;;;;;;5016970;28;20927;-74
2020/12/07 05:39:25;;;;;;;21.83;16.20;;;5.30;99.90;;;;;;5018963;28;20196;-73
2020/12/07 05:41:55;;;;;;;20.57;16.07;;;5.30;99.90;;;;;;5049478;28;20265;-75
2020/12/07 05:44:21;;;;;;;19.03;14.47;;;5.20;99.90;;;;;;5046698;28;20457;-74
2020/12/07 05:46:53;;;;;;;17.17;14.27;;;5.20;99.90;;;;;;5036120;28;20434;-74
2020/12/07 05:49:18;;;;;;;24.30;15.50;;;5.10;99.90;;;;;;5021542;28;20441;-74
2020/12/07 05:52:02;;;;;;;22.10;16.63;;;5.10;99.90;;;;;;5028728;28;20500;-74
2020/12/07 05:54:28;;;;;;;22.17;16.03;;;5.20;99.90;;;;;;5031336;28;20175;-73
2020/12/07 05:56:57;;;;;;;20.73;15.53;;;5.10;99.90;;;;;;5026775;28;20435;-74
2020/12/07 05:59:30;;;;;;;17.93;14.17;;;5.10;99.90;;;;;;5017768;28;20568;-74
2020/12/07 06:01:58;;;;;;;18.07;14.60;;;5.10;99.90;;;;;;5025726;28;20427;-75
2020/12/07 06:04:27;;;;;;;18.00;15.30;;;5.10;99.90;;;;;;5026480;28;20458;-74
2020/12/07 06:06:57;;;;;;;19.97;15.43;;;5.10;99.90;;;;;;5026372;28;20427;-73
2020/12/07 06:09:26;;;;;;;19.00;14.60;;;5.10;99.90;;;;;;5021399;28;20538;-74
2020/12/07 06:11:58;;;;;;;19.57;14.70;;;5.10;99.90;;;;;;5017011;28;20972;-74
2020/12/07 06:14:25;;;;;;;20.30;14.27;;;5.00;99.90;;;;;;5018884;28;20917;-74
2020/12/07 06:16:51;;;;;;;19.60;14.63;;;5.00;99.90;;;;;;5033806;28;20560;-74
2020/12/07 06:19:18;;;;;;;21.60;15.90;;;5.00;99.90;;;;;;5026421;28;20974;-74
2020/12/07 06:22:06;;;;;;;20.40;15.43;;;5.00;99.90;;;;;;5022525;28;20740;-73
2020/12/07 06:24:42;;;;;;;21.33;14.57;;;5.00;99.90;;;;;;5027521;28;20499;-73
2020/12/07 06:27:10;;;;;;;19.67;15.47;;;5.10;99.90;;;;;;5008123;28;20939;-74
2020/12/07 06:29:36;;;;;;;20.97;15.37;;;5.10;99.90;;;;;;5023374;28;20467;-75
2020/12/07 06:32:03;;;;;;;18.50;14.37;;;5.10;99.90;;;;;;5015162;28;20421;-74
2020/12/07 06:34:33;;;;;;;20.70;15.57;;;5.10;99.90;;;;;;5014075;28;20431;-74
2020/12/07 06:36:59;;;;;;;21.47;14.40;;;5.00;99.90;;;;;;5024786;28;20437;-75
2020/12/07 06:39:24;;;;;;;20.17;14.80;;;5.00;99.90;;;;;;5024591;28;20488;-74
2020/12/07 06:41:56;;;;;;;21.20;15.40;;;5.00;99.90;;;;;;5031823;28;20418;-74
2020/12/07 06:44:23;;;;;;;22.10;15.30;;;5.00;99.90;;;;;;5020991;28;20202;-74
2020/12/07 06:47:00;;;;;;;22.57;14.60;;;5.10;99.90;;;;;;5014790;28;20442;-74
2020/12/07 06:52:16;;;;;;;27.20;14.57;;;5.10;99.90;;;;;;5033186;28;20996;-73
2020/12/07 06:57:39;;;;;;;18.03;13.73;;;5.10;99.90;;;;;;5018138;28;20480;-73
2020/12/07 07:00:12;;;;;;;21.40;15.10;;;5.20;99.90;;;;;;5034274;28;20445;-73
2020/12/07 07:02:45;;;;;;;21.73;14.60;;;5.10;99.90;;;;;;5034601;28;20421;-73
2020/12/07 07:05:15;;;;;;;20.53;14.03;;;5.00;99.90;;;;;;5022076;28;20461;-72
2020/12/07 07:07:41;;;;;;;22.27;15.40;;;5.00;99.90;;;;;;5014931;28;20418;-74
2020/12/07 07:10:09;;;;;;;20.30;15.50;;;5.00;99.90;;;;;;5015099;28;20456;-73
2020/12/07 07:12:36;;;;;;;21.57;15.30;;;5.10;99.90;;;;;;5028028;28;20513;-73
2020/12/07 07:15:03;;;;;;;20.77;16.10;;;5.10;99.90;;;;;;5016246;28;20437;-73
2020/12/07 07:17:31;;;;;;;24.90;17.30;;;5.10;99.90;;;;;;5018036;28;20421;-73
2020/12/07 07:19:58;;;;;;;23.77;17.33;;;5.10;99.90;;;;;;5016550;28;20527;-73
2020/12/07 07:22:25;;;;;;;23.67;16.33;;;5.10;99.90;;;;;;5013536;28;20420;-73
2020/12/07 07:24:58;;;;;;;24.70;17.90;;;5.10;99.90;;;;;;5013981;28;20988;-73
2020/12/07 07:30:11;;;;;;;27.27;19.33;;;5.00;99.90;;;;;;5032739;28;20790;-73
2020/12/07 07:32:40;;;;;;;27.50;18.47;;;4.90;99.90;;;;;;5027045;28;20425;-73
2020/12/07 07:35:07;;;;;;;27.83;19.30;;;5.00;99.90;;;;;;5015005;28;20426;-73
2020/12/07 07:37:33;;;;;;;28.80;19.63;;;5.00;99.90;;;;;;5027944;28;20425;-73
2020/12/07 07:40:01;;;;;;;33.03;21.90;;;4.90;99.90;;;;;;5020689;28;20526;-73
2020/12/07 07:42:28;;;;;;;31.60;21.30;;;5.00;99.90;;;;;;5032199;28;20182;-73
2020/12/07 07:44:55;;;;;;;30.70;22.27;;;4.90;99.90;;;;;;5024255;28;20470;-73
2020/12/07 07:47:28;;;;;;;33.97;22.03;;;4.90;99.90;;;;;;5022634;28;20927;-73
2020/12/07 07:58:56;;;;;;;30.90;21.50;;;4.90;99.90;;;;;;5012479;28;20430;-73
2020/12/07 08:06:36;;;;;;;32.93;20.70;;;4.90;99.90;;;;;;5032090;28;20419;-73
2020/12/07 08:16:56;;;;;;;25.97;18.10;;;5.00;99.90;;;;;;5006563;28;20424;-73
2020/12/07 08:19:23;;;;;;;24.30;18.37;;;5.10;99.90;;;;;;5012461;28;20496;-72
2020/12/07 08:21:48;;;;;;;24.77;16.80;;;5.00;99.90;;;;;;5017350;28;20631;-73
2020/12/07 08:24:14;;;;;;;23.43;16.60;;;5.00;99.90;;;;;;5031265;28;20560;-73
2020/12/07 08:26:43;;;;;;;23.47;16.90;;;4.90;99.90;;;;;;5032011;28;20182;-73
2020/12/07 08:29:09;;;;;;;21.70;16.13;;;5.00;99.90;;;;;;5024852;28;20193;-73
2020/12/07 08:31:36;;;;;;;22.10;16.73;;;5.00;99.90;;;;;;5012690;28;20843;-73
2020/12/07 08:34:14;;;;;;;25.27;17.73;;;5.10;99.90;;;;;;5012138;28;20691;-73
2020/12/07 08:36:42;;;;;;;28.47;17.77;;;5.10;99.90;;;;;;5010902;28;20520;-73
2020/12/07 08:39:08;;;;;;;22.43;17.93;;;5.10;99.90;;;;;;5018158;28;20533;-73
2020/12/07 08:41:35;;;;;;;21.57;16.60;;;5.20;99.90;;;;;;5031290;28;20419;-73
2020/12/07 08:44:10;;;;;;;22.70;14.40;;;5.20;99.90;;;;;;5018524;28;20507;-72
2020/12/07 08:46:37;;;;;;;25.37;17.10;;;5.10;99.90;;;;;;5012364;28;20416;-72
2020/12/07 08:49:05;;;;;;;25.07;16.10;;;5.10;99.90;;;;;;5011994;28;20460;-72
2020/12/07 08:51:33;;;;;;;22.30;16.77;;;5.10;99.90;;;;;;5028647;28;20435;-73
2020/12/07 08:53:59;;;;;;;23.50;16.20;;;5.10;99.90;;;;;;5031837;28;20817;-72
2020/12/07 08:56:24;;;;;;;22.47;16.23;;;5.10;99.90;;;;;;5031426;28;20423;-72
2020/12/07 08:58:50;;;;;;;21.20;14.83;;;5.00;99.90;;;;;;5013002;28;20437;-72
2020/12/07 09:01:15;;;;;;;22.47;15.97;;;5.00;99.90;;;;;;5025197;28;20597;-73
2020/12/07 09:03:42;;;;;;;28.40;17.57;;;5.10;99.90;;;;;;5031049;28;20216;-73
2020/12/07 09:06:09;;;;;;;22.27;16.10;;;5.00;99.90;;;;;;5031077;28;20678;-73
2020/12/07 09:08:36;;;;;;;27.13;17.07;;;4.90;99.90;;;;;;5032250;28;20468;-72
2020/12/07 09:11:08;;;;;;;24.33;16.27;;;5.00;99.90;;;;;;5035313;28;20416;-72
2020/12/07 09:13:35;;;;;;;23.37;16.20;;;5.00;99.90;;;;;;5023321;28;20425;-72
2020/12/07 09:16:01;;;;;;;22.23;15.47;;;5.00;99.90;;;;;;5034738;28;20774;-73
2020/12/07 09:18:27;;;;;;;25.17;15.87;;;5.00;99.90;;;;;;5019432;28;20505;-73
2020/12/07 09:20:53;;;;;;;20.17;15.87;;;5.00;99.90;;;;;;5035024;28;20558;-73
2020/12/07 09:23:19;;;;;;;24.93;17.73;;;4.90;99.90;;;;;;5035216;28;20178;-73
2020/12/07 09:25:45;;;;;;;23.00;16.07;;;5.00;99.90;;;;;;5029708;28;20170;-73
2020/12/07 09:28:10;;;;;;;20.87;14.20;;;5.00;99.90;;;;;;5035502;28;20506;-75
2020/12/07 09:30:36;;;;;;;19.93;14.50;;;5.10;99.90;;;;;;5035280;28;20188;-74
2020/12/07 09:33:02;;;;;;;21.33;14.40;;;5.10;99.90;;;;;;5014462;28;20680;-73
2020/12/07 09:35:27;;;;;;;21.60;15.57;;;5.00;99.90;;;;;;5013773;28;20182;-73
2020/12/07 09:37:53;;;;;;;21.00;15.30;;;5.00;99.90;;;;;;5023321;28;20258;-73
2020/12/07 09:40:18;;;;;;;20.40;15.30;;;5.10;99.90;;;;;;5030703;28;20562;-73
2020/12/07 09:42:44;;;;;;;23.67;15.43;;;5.10;99.90;;;;;;5022686;28;20173;-73
2020/12/07 09:45:10;;;;;;;25.80;16.37;;;5.10;99.90;;;;;;5032048;28;20741;-73
2020/12/07 09:47:36;;;;;;;19.37;14.80;;;5.00;99.90;;;;;;5020218;28;20171;-73
2020/12/07 09:50:07;;;;;;;21.77;15.23;;;5.00;99.90;;;;;;5025028;28;20435;-73
2020/12/07 09:52:33;;;;;;;18.23;14.90;;;5.10;99.90;;;;;;5023180;28;20898;-73
2020/12/07 09:54:59;;;;;;;25.93;15.80;;;5.20;99.90;;;;;;5014642;28;20491;-73
2020/12/07 09:57:24;;;;;;;21.10;15.40;;;5.10;99.90;;;;;;5022751;28;20433;-73
2020/12/07 09:59:50;;;;;;;22.23;15.50;;;5.10;99.90;;;;;;5014676;28;20196;-73
2020/12/07 10:02:17;;;;;;;24.73;16.80;;;4.90;99.90;;;;;;5015219;28;20546;-73
2020/12/07 10:04:43;;;;;;;24.63;15.87;;;5.00;99.90;;;;;;5021590;28;20353;-73
2020/12/07 10:07:08;;;;;;;25.23;17.80;;;5.10;99.90;;;;;;5030974;28;20421;-73
2020/12/07 10:09:34;;;;;;;24.00;15.30;;;5.10;99.90;;;;;;5007026;28;20459;-73
2020/12/07 10:12:00;;;;;;;23.53;15.53;;;5.20;99.90;;;;;;5030034;28;20498;-73
2020/12/07 10:14:26;;;;;;;24.17;16.77;;;5.20;99.90;;;;;;5032583;28;20181;-73
2020/12/07 10:16:51;;;;;;;23.23;15.53;;;5.10;99.90;;;;;;5015267;28;20427;-72
2020/12/07 10:19:17;;;;;;;30.50;16.90;;;5.10;99.90;;;;;;5028328;28;20194;-72
2020/12/07 10:21:42;;;;;;;22.83;15.67;;;5.20;99.90;;;;;;5014902;28;20270;-72
2020/12/07 10:24:08;;;;;;;25.03;19.20;;;5.30;99.90;;;;;;5012503;28;20439;-72
2020/12/07 10:26:33;;;;;;;22.90;15.30;;;5.30;99.90;;;;;;5029798;28;20252;-73
2020/12/07 10:29:00;;;;;;;23.07;16.07;;;5.30;99.90;;;;;;5018929;28;20304;-73
2020/12/07 10:31:26;;;;;;;22.80;15.47;;;5.40;99.90;;;;;;5025466;28;20223;-73
2020/12/07 10:33:53;;;;;;;21.50;14.50;;;5.40;99.90;;;;;;5024529;28;20435;-73
2020/12/07 10:36:19;;;;;;;20.33;14.00;;;5.40;99.90;;;;;;5019284;28;20419;-73
2020/12/07 10:38:46;;;;;;;17.93;12.87;;;5.40;99.90;;;;;;5015441;28;20438;-73
2020/12/07 10:41:15;;;;;;;19.17;13.00;;;5.40;99.90;;;;;;5032403;28;20920;-73
2020/12/07 10:43:42;;;;;;;21.27;13.27;;;5.30;99.90;;;;;;5033241;28;20460;-73
2020/12/07 10:46:10;;;;;;;18.83;11.80;;;5.20;99.90;;;;;;5029017;28;20429;-73
2020/12/07 10:48:35;;;;;;;14.77;11.47;;;5.20;99.90;;;;;;5013770;28;20454;-73
2020/12/07 10:51:01;;;;;;;16.10;11.33;;;5.20;99.90;;;;;;5032887;28;20439;-73
2020/12/07 10:53:26;;;;;;;17.57;11.53;;;5.20;99.90;;;;;;5024944;28;20198;-73
2020/12/07 10:55:52;;;;;;;18.53;12.00;;;5.20;99.90;;;;;;5016948;28;20217;-73
2020/12/07 10:58:21;;;;;;;17.30;11.67;;;5.20;99.90;;;;;;5026875;28;20585;-72
2020/12/07 11:00:48;;;;;;;15.50;11.70;;;5.20;99.90;;;;;;5012270;28;20863;-73
2020/12/07 11:03:13;;;;;;;14.17;10.40;;;5.10;99.90;;;;;;5023958;28;20957;-72
2020/12/07 11:05:39;;;;;;;16.27;10.90;;;5.10;99.90;;;;;;5017851;28;20478;-72
2020/12/07 11:08:17;;;;;;;16.70;11.67;;;5.10;99.90;;;;;;5023175;28;20229;-72
2020/12/07 11:10:43;;;;;;;16.80;12.50;;;5.20;99.90;;;;;;5017851;28;20437;-72
2020/12/07 11:13:21;;;;;;;16.00;11.37;;;5.10;99.90;;;;;;5030784;28;20435;-72
2020/12/07 11:15:47;;;;;;;15.30;10.67;;;5.10;99.90;;;;;;5024475;28;20188;-73
2020/12/07 11:18:12;;;;;;;18.40;11.00;;;5.10;99.90;;;;;;5013434;28;20445;-72
2020/12/07 11:20:38;;;;;;;13.97;9.83;;;5.20;99.90;;;;;;5027038;28;20288;-72
2020/12/07 11:23:03;;;;;;;13.50;10.03;;;5.20;99.90;;;;;;5021327;28;20501;-72
2020/12/07 11:25:29;;;;;;;11.70;9.57;;;5.20;99.90;;;;;;5013859;28;20730;-72
2020/12/07 11:27:54;;;;;;;14.73;10.30;;;5.30;99.90;;;;;;5027551;28;20606;-73
2020/12/07 11:30:20;;;;;;;12.70;10.10;;;5.30;99.90;;;;;;5022519;28;20195;-73
2020/12/07 11:32:45;;;;;;;13.20;9.37;;;5.30;99.90;;;;;;5017177;28;20171;-72
2020/12/07 11:35:11;;;;;;;11.20;8.90;;;5.30;99.90;;;;;;5024314;28;20620;-73
2020/12/07 11:37:38;;;;;;;11.00;9.70;;;5.40;99.90;;;;;;5024255;28;20186;-72
2020/12/07 11:40:14;;;;;;;16.07;10.47;;;5.30;99.90;;;;;;5024377;28;20310;-73
2020/12/07 11:42:50;;;;;;;10.33;8.77;;;5.40;99.90;;;;;;5032409;28;20506;-72
2020/12/07 11:45:16;;;;;;;13.53;9.70;;;5.30;99.90;;;;;;5023048;28;20466;-72
2020/12/07 11:47:41;;;;;;;10.47;8.60;;;5.40;99.90;;;;;;5023915;28;20503;-74
2020/12/07 11:50:07;;;;;;;12.60;8.97;;;5.40;99.90;;;;;;5018743;28;20262;-74
2020/12/07 11:52:32;;;;;;;10.37;8.03;;;5.50;99.90;;;;;;5028808;28;20615;-73
2020/12/07 11:54:58;;;;;;;8.70;7.80;;;5.50;99.90;;;;;;5019836;28;20200;-74
2020/12/07 11:57:23;;;;;;;8.40;6.97;;;5.60;99.90;;;;;;5028303;28;20320;-73
2020/12/07 11:59:49;;;;;;;8.50;6.33;;;5.60;99.90;;;;;;5023762;28;20234;-73
2020/12/07 12:02:15;;;;;;;7.73;6.27;;;5.70;99.90;;;;;;5018551;28;20634;-75
2020/12/07 12:04:40;;;;;;;6.80;6.03;;;5.70;99.90;;;;;;5013161;28;20204;-72
2020/12/07 12:07:07;;;;;;;6.77;6.07;;;5.80;99.90;;;;;;5018151;28;20199;-74
2020/12/07 12:09:36;;;;;;;8.00;5.67;;;5.80;99.90;;;;;;5032735;28;20280;-73
2020/12/07 12:12:03;;;;;;;7.70;5.80;;;5.80;99.90;;;;;;5030232;28;20421;-74
2020/12/07 12:14:29;;;;;;;7.80;6.00;;;5.90;99.90;;;;;;5024583;28;20499;-72
2020/12/07 12:16:56;;;;;;;7.23;5.60;;;5.90;99.90;;;;;;5013520;28;20907;-73
2020/12/07 12:19:21;;;;;;;8.10;5.30;;;5.80;99.90;;;;;;5026368;28;20193;-72
2020/12/07 12:21:47;;;;;;;8.80;6.23;;;5.90;99.90;;;;;;5023718;28;20505;-72
2020/12/07 12:24:12;;;;;;;7.93;6.50;;;5.90;99.90;;;;;;5028162;28;20288;-73
2020/12/07 12:26:40;;;;;;;8.23;6.93;;;5.80;99.90;;;;;;5027429;28;20753;-73
2020/12/07 12:29:05;;;;;;;8.40;6.80;;;5.90;99.90;;;;;;5022597;28;20204;-73
2020/12/07 12:31:32;;;;;;;10.70;7.53;;;5.90;99.90;;;;;;5023624;28;20906;-73
2020/12/07 12:33:58;;;;;;;9.27;7.33;;;5.90;99.90;;;;;;5031117;28;20690;-73
2020/12/07 12:36:25;;;;;;;10.40;7.30;;;5.90;99.90;;;;;;5018668;28;20418;-72
2020/12/07 12:38:51;;;;;;;8.87;6.77;;;5.90;99.90;;;;;;5017964;28;20520;-72
2020/12/07 12:41:17;;;;;;;11.40;8.20;;;5.90;99.90;;;;;;5022306;28;20600;-73
2020/12/07 12:43:43;;;;;;;8.90;7.57;;;5.90;99.90;;;;;;5025653;28;20420;-72
2020/12/07 12:46:09;;;;;;;11.00;8.20;;;5.80;99.90;;;;;;5026307;28;20963;-72
2020/12/07 12:48:35;;;;;;;10.37;7.20;;;5.80;99.90;;;;;;5020707;28;20520;-73
2020/12/07 12:51:01;;;;;;;9.53;7.47;;;5.80;99.90;;;;;;5028544;28;20179;-73
2020/12/07 12:53:30;;;;;;;8.00;6.93;;;5.90;99.90;;;;;;5045281;28;20434;-73
2020/12/07 12:55:56;;;;;;;9.90;7.70;;;5.90;99.90;;;;;;5023655;28;20472;-74
2020/12/07 12:58:22;;;;;;;8.93;7.47;;;5.90;99.90;;;;;;5024513;28;20434;-72
2020/12/07 13:00:48;;;;;;;10.27;8.20;;;5.90;99.90;;;;;;5023931;28;20421;-74
2020/12/07 13:03:14;;;;;;;8.60;7.17;;;6.00;99.90;;;;;;5027856;28;20413;-73
2020/12/07 13:05:40;;;;;;;9.77;6.50;;;6.00;99.90;;;;;;5027607;28;20522;-74